Terminal Aerodrome Forecast
Issued by NWS

Home | Current Version | Previous Version | Text Only | Print | Product List | Glossary On
Versions: 1 2 3 4 5 6 7 8 9 10 11 12 13
000
FTUS45 KFGZ 031120
TAFPGA
TAF
KPGA 031120Z 0312/0412 20005KT P6SM SCT110 BKN200
     FM031900 30010G15KT P6SM SCT100 BKN200
     FM040200 23007KT P6SM BKN100=

USA.gov is the U.S. government's official web portal to all federal, state and local government web resources and services.